Slotergracht — PDBP — position and weather

sailwx.info

Track history (hours):
 
Tides and Currents Weather Stations Pressure Air Temp Water Temp Dewpoint Dewpoint Depression Visibility Wind Speed Wind Dir Waves Ship Positions

Slotergracht

Last reported at 2015-Mar-03 23:33 UTC. Time now 2015-Mar-04 04:25 UTC.
Position N 54°18' W 005°20'.

Length 168 m; beam 25 m.

Type: Cargo ship. MMSI: 246456000.

Date/timePositionNaut miles runAvg speedWind from/ knotsBaromVisibWave heightAir tempDewpointWater temp
2015-Mar-03 23:33N 54°18' W 005°20'1817.8
2015-Mar-03 22:33N 54°35' W 005°22'1414.2
2015-Mar-03 21:33N 54°42' W 005°43'8 7.8
2015-Mar-03 20:33N 54°37' W 005°54'1 0.5
2015-Mar-03 19:04N 54°37' W 005°55'0 0.0
2015-Mar-03 18:22N 54°37' W 005°55'0 0.0
2015-Mar-03 17:28N 54°37' W 005°55'0 0.0
2015-Mar-03 16:28N 54°37' W 005°55'0 0.0
2015-Mar-03 15:28N 54°37' W 005°55'0 0.0
2015-Mar-03 14:28N 54°37' W 005°55'0 0.0
2015-Mar-03 12:28N 54°37' W 005°55'0 0.0
2015-Mar-03 11:22N 54°37' W 005°55'0 0.0
2015-Mar-03 06:10N 54°37' W 005°55'0 0.0
2015-Mar-03 04:15N 54°37' W 005°55'0 0.0
2015-Mar-03 02:27N 54°37' W 005°55'0 0.0
2015-Mar-02 14:09N 54°37' W 005°55'0 0.0
2015-Mar-02 09:25N 54°37' W 005°55'5 5.4
2015-Mar-02 08:33N 54°40' W 005°50'1211.6
2015-Mar-02 07:33N 54°44' W 005°31'1413.7
2015-Mar-02 06:33N 54°32' W 005°21'1515.4
2015-Mar-02 05:33N 54°16' W 005°19'15115.9
2015-Mar-01 20:04N 51°52' W 006°35'1017.4
2015-Mar-01 19:30N 51°48' W 006°50'1617.5
2015-Mar-01 18:33N 51°43' W 007°15'1717.3
2015-Mar-01 17:33N 51°37' W 007°41'1717.1
2015-Mar-01 16:33N 51°30' W 008°06'1817.3
2015-Mar-01 15:31N 51°23' W 008°33'1717.7
2015-Mar-01 14:33N 51°17' W 008°58'1817.5
2015-Mar-01 13:33N 51°11' W 009°24'1717.0
2015-Mar-01 12:33N 51°08' W 009°51'  
Track history (hours):
 
Tides and Currents Weather Stations Pressure Air Temp Water Temp Dewpoint Dewpoint Depression Visibility Wind Speed Wind Dir Waves Ship Positions

Slotergracht

Last reported at 2015-Mar-03 23:33 UTC. Time now 2015-Mar-04 04:25 UTC.
Position N 54°18' W 005°20'.

Length 168 m; beam 25 m.

Type: Cargo ship. MMSI: 246456000.

Date/timePositionNaut miles runAvg speedWind from/ knotsBaromVisibWave heightAir tempDewpointWater temp
2015-Mar-03 23:33N 54°18' W 005°20'1817.8
2015-Mar-03 22:33N 54°35' W 005°22'1414.2
2015-Mar-03 21:33N 54°42' W 005°43'8 7.8
2015-Mar-03 20:33N 54°37' W 005°54'1 0.5
2015-Mar-03 19:04N 54°37' W 005°55'0 0.0
2015-Mar-03 18:22N 54°37' W 005°55'0 0.0
2015-Mar-03 17:28N 54°37' W 005°55'0 0.0
2015-Mar-03 16:28N 54°37' W 005°55'0 0.0
2015-Mar-03 15:28N 54°37' W 005°55'0 0.0
2015-Mar-03 14:28N 54°37' W 005°55'0 0.0
2015-Mar-03 12:28N 54°37' W 005°55'0 0.0
2015-Mar-03 11:22N 54°37' W 005°55'0 0.0
2015-Mar-03 06:10N 54°37' W 005°55'0 0.0
2015-Mar-03 04:15N 54°37' W 005°55'0 0.0
2015-Mar-03 02:27N 54°37' W 005°55'0 0.0
2015-Mar-02 14:09N 54°37' W 005°55'0 0.0
2015-Mar-02 09:25N 54°37' W 005°55'5 5.4
2015-Mar-02 08:33N 54°40' W 005°50'1211.6
2015-Mar-02 07:33N 54°44' W 005°31'1413.7
2015-Mar-02 06:33N 54°32' W 005°21'1515.4
2015-Mar-02 05:33N 54°16' W 005°19'15115.9
2015-Mar-01 20:04N 51°52' W 006°35'1017.4
2015-Mar-01 19:30N 51°48' W 006°50'1617.5
2015-Mar-01 18:33N 51°43' W 007°15'1717.3
2015-Mar-01 17:33N 51°37' W 007°41'1717.1
2015-Mar-01 16:33N 51°30' W 008°06'1817.3
2015-Mar-01 15:31N 51°23' W 008°33'1717.7
2015-Mar-01 14:33N 51°17' W 008°58'1817.5
2015-Mar-01 13:33N 51°11' W 009°24'1717.0
2015-Mar-01 12:33N 51°08' W 009°51'  

Dump ship's entire track history